Главная страница
METAR-TAF:

METAR-TAF

Аэропорты :

Indiana County Airport (Jimmy Stewart Field)

Индиана, Пенсильвания, США

широта: 40-38N, долгота: 079-06W, высота над уровнем моря: 429 м

Текущие метеонаблюдения

Эта сводка был подготовлена 18 минут назад, в 06:55 UTC
Ветер 8 Узел от юго-восточный с порывами до 16 Узел
Температура -1°C
Влажность 28%
Давление 1025 hPa
Видимость: 16.1 км
ясное небо

METAR: KIDI 170655Z AUTO 13008G16KT 10SM CLR M01/M17 A3028 RMK A01

Время: 02:13 (07:13 UTC)


TAF: отсутствует

Метеонаблюдения и прогнозы для более 4000 аэропортов (сводки METAR и TAF).

Имеющиеся станции представлены на карте желтыми и красными точками.

Чтобы увидеть название станции, наведите на нее мышь.

Затем щелкните, чтобы увидеть метеонаблюдения и метеопрогнозы.

Управление картой: чтобы увеличить масштаб, щелкните зеленые кнопки с черным крестиком; чтобы уменьшить масштаб, щелкните зеленую кнопку с тире; для просмотра соседних карт щелкайте зеленые стрелки.


METAR-TAF: